Time;durP1;ratioP1;P1;durP2;ratioP2;P2;SDS_P1;SDS_P2;PMS_P1;PMS_P2;Temp;Humidity;BMP_temperature;BMP_pressure;BME280_temperature;BME280_humidity;BME280_pressure;Samples;Min_cycle;Max_cycle;Signal;HPM_P1;HPM_P2
2023/10/31 00:00:32;;;;;;;16.10;9.10;;;;;;;-143.21;67.69;72669.13;4981628;28;20220;-82
2023/10/31 00:02:59;;;;;;;18.30;9.77;;;;;;;-143.21;67.34;72667.13;4981545;28;20220;-85
2023/10/31 00:05:26;;;;;;;14.20;8.33;;;;;;;-143.21;67.34;72665.16;4981201;28;20232;-85
2023/10/31 00:07:53;;;;;;;15.97;8.77;;;;;;;-143.21;67.11;72669.13;4984956;28;20212;-85
2023/10/31 00:10:20;;;;;;;13.83;8.43;;;;;;;-143.21;67.51;72669.13;4979874;28;20212;-85
2023/10/31 00:12:47;;;;;;;16.90;8.70;;;;;;;-143.21;67.98;72679.03;4982140;28;20727;-86
2023/10/31 00:15:16;;;;;;;16.47;8.40;;;;;;;-143.21;67.87;72679.03;4978500;28;20279;-83
2023/10/31 00:17:43;;;;;;;15.20;8.17;;;;;;;-143.21;68.38;72688.94;4976172;28;20672;-85
2023/10/31 00:20:10;;;;;;;16.23;8.40;;;;;;;-143.21;68.74;72698.88;4985063;28;20208;-85
2023/10/31 00:22:37;;;;;;;20.70;8.73;;;;;;;-143.21;68.96;72698.88;4978636;28;20211;-86
2023/10/31 00:25:05;;;;;;;14.43;9.43;;;;;;;-143.21;68.66;72692.91;4979208;28;20220;-85
2023/10/31 00:27:32;;;;;;;16.40;9.97;;;;;;;-143.21;68.77;72686.97;4984681;28;20216;-85
2023/10/31 00:29:59;;;;;;;18.53;9.80;;;;;;;-143.21;68.58;72688.94;4987807;28;20247;-85
2023/10/31 00:32:27;;;;;;;17.23;8.63;;;;;;;-143.21;68.68;72686.97;4984321;28;20219;-85
2023/10/31 00:34:54;;;;;;;19.50;9.93;;;;;;;-143.21;69.25;72692.91;4984184;28;20283;-85
2023/10/31 00:37:21;;;;;;;12.50;8.90;;;;;;;-143.21;68.57;72685.00;4982809;28;20205;-85
2023/10/31 00:39:48;;;;;;;15.43;9.13;;;;;;;-143.21;68.90;72696.88;4970879;28;20205;-85
2023/10/31 00:42:15;;;;;;;17.97;9.37;;;;;;;-143.21;69.03;72686.97;4970788;28;20201;-84
2023/10/31 00:44:42;;;;;;;17.63;10.00;;;;;;;-143.21;68.76;72690.94;4978650;28;20209;-85
2023/10/31 00:47:08;;;;;;;17.20;8.43;;;;;;;-143.21;69.04;72686.97;4979875;28;20204;-85
2023/10/31 00:49:37;;;;;;;17.17;9.00;;;;;;;-143.21;69.08;72694.91;4979091;28;20320;-85
2023/10/31 00:52:04;;;;;;;16.83;8.87;;;;;;;-143.21;68.92;72696.88;4984827;28;20197;-86
2023/10/31 00:54:31;;;;;;;16.80;9.37;;;;;;;-143.21;68.92;72694.91;4977889;28;20223;-86
2023/10/31 00:56:58;;;;;;;18.97;9.33;;;;;;;-143.21;69.47;72696.88;4979784;28;20590;-85
2023/10/31 00:59:25;;;;;;;13.27;8.00;;;;;;;-143.21;69.26;72692.91;4977781;28;20200;-85
2023/10/31 01:01:51;;;;;;;16.27;8.80;;;;;;;-143.21;69.56;72700.84;4980157;28;20211;-85
2023/10/31 01:04:18;;;;;;;18.57;9.87;;;;;;;-143.21;69.32;72690.94;4979077;28;20209;-85
2023/10/31 01:06:46;;;;;;;16.97;9.87;;;;;;;-143.21;69.15;72698.88;4986982;28;20628;-85
2023/10/31 01:09:13;;;;;;;13.77;8.10;;;;;;;-143.21;69.17;72685.00;4977407;28;20309;-84
2023/10/31 01:11:40;;;;;;;16.30;10.50;;;;;;;-143.21;69.27;72685.00;4973786;28;20215;-84
2023/10/31 01:14:07;;;;;;;21.60;11.67;;;;;;;-143.21;69.16;72681.03;4983759;28;20219;-84
2023/10/31 01:16:34;;;;;;;19.10;9.43;;;;;;;-143.21;68.97;72685.00;4980151;28;20706;-85
2023/10/31 01:19:01;;;;;;;13.47;8.57;;;;;;;-143.21;69.54;72694.91;4982512;28;20204;-84
2023/10/31 01:21:27;;;;;;;13.93;8.77;;;;;;;-143.21;70.00;72696.88;4973887;28;20219;-84
2023/10/31 01:23:56;;;;;;;16.60;8.93;;;;;;;-143.21;70.34;72694.91;4976464;28;20243;-83
2023/10/31 01:26:22;;;;;;;14.60;8.70;;;;;;;-143.21;70.09;72694.91;4975429;28;20204;-83
2023/10/31 01:28:49;;;;;;;14.63;7.33;;;;;;;-143.21;70.16;72696.88;4984255;28;20654;-83
2023/10/31 01:31:16;;;;;;;13.27;7.03;;;;;;;-143.21;69.88;72690.94;4978702;28;20243;-83
2023/10/31 01:33:43;;;;;;;15.77;7.77;;;;;;;-143.21;70.12;72688.94;4976370;28;20211;-83
2023/10/31 01:36:12;;;;;;;11.13;7.50;;;;;;;-143.21;70.15;72688.94;4977222;28;20217;-82
2023/10/31 01:38:39;;;;;;;12.83;6.60;;;;;;;-143.21;70.34;72685.00;4972564;28;20590;-84
2023/10/31 01:41:07;;;;;;;23.30;7.70;;;;;;;-143.21;70.05;72677.06;4985159;28;20848;-84
2023/10/31 01:43:36;;;;;;;12.47;6.13;;;;;;;-143.21;70.32;72688.94;4980592;28;20588;-83
2023/10/31 01:46:03;;;;;;;14.77;6.93;;;;;;;-143.21;70.33;72685.00;4955325;28;20212;-82
2023/10/31 01:48:31;;;;;;;20.47;9.17;;;;;;;-143.21;70.60;72679.03;4982966;28;20604;-82
2023/10/31 01:51:00;;;;;;;12.50;8.53;;;;;;;-143.21;69.84;72685.00;4987059;28;20255;-82
2023/10/31 01:53:29;;;;;;;14.37;6.93;;;;;;;-143.21;69.84;72671.09;4979252;28;20204;-82
2023/10/31 01:55:57;;;;;;;21.40;9.97;;;;;;;-143.21;69.10;72671.09;4972269;28;20248;-84
2023/10/31 01:58:29;;;;;;;9.13;6.10;;;;;;;-143.21;69.85;72686.97;4981700;28;20212;-85
2023/10/31 02:00:56;;;;;;;12.13;6.87;;;;;;;-143.21;70.10;72688.94;4977021;28;20208;-84
2023/10/31 02:03:23;;;;;;;18.37;9.07;;;;;;;-143.21;70.21;72692.91;4975924;28;20223;-85
2023/10/31 02:05:52;;;;;;;15.50;8.83;;;;;;;-143.21;70.29;72690.94;4976671;28;20204;-84
2023/10/31 02:08:19;;;;;;;18.87;10.23;;;;;;;-143.21;70.15;72686.97;4978187;28;20196;-85
2023/10/31 02:10:46;;;;;;;22.03;9.10;;;;;;;-143.21;69.99;72686.97;4976511;28;20211;-84
2023/10/31 02:13:13;;;;;;;19.83;10.23;;;;;;;-143.21;69.79;72683.00;4967786;28;20208;-84
2023/10/31 02:15:42;;;;;;;14.07;9.17;;;;;;;-143.21;69.87;72683.00;4971888;28;20630;-82
2023/10/31 02:18:09;;;;;;;23.83;10.03;;;;;;;-143.21;70.01;72683.00;4979548;28;20196;-82
2023/10/31 02:20:37;;;;;;;23.10;10.13;;;;;;;-143.21;69.69;72681.03;4973555;28;20208;-82
2023/10/31 02:23:05;;;;;;;18.00;9.47;;;;;;;-143.21;70.30;72688.94;4982512;28;20209;-82
2023/10/31 02:25:33;;;;;;;15.70;9.57;;;;;;;-143.21;70.21;72688.94;4975253;28;20222;-83
2023/10/31 02:28:00;;;;;;;17.33;9.20;;;;;;;-143.21;70.31;72700.84;4968061;28;20212;-82
2023/10/31 02:30:27;;;;;;;15.30;8.90;;;;;;;-143.21;70.57;72696.88;4972806;28;20236;-83
2023/10/31 02:32:54;;;;;;;14.30;8.87;;;;;;;-143.21;70.48;72700.84;4981296;28;20666;-83
2023/10/31 02:35:21;;;;;;;13.70;8.87;;;;;;;-143.21;70.89;72706.81;4979910;28;20690;-83
2023/10/31 02:37:49;;;;;;;21.10;9.60;;;;;;;-143.21;70.63;72706.81;4979127;28;20661;-83
2023/10/31 02:40:17;;;;;;;12.27;8.30;;;;;;;-143.21;70.27;72700.84;4976547;28;20224;-82
2023/10/31 02:42:44;;;;;;;17.07;8.70;;;;;;;-143.21;70.46;72702.84;4979467;28;20215;-83
2023/10/31 02:45:11;;;;;;;13.57;8.80;;;;;;;-143.21;70.52;72706.81;4983068;28;20200;-83
2023/10/31 02:47:38;;;;;;;16.80;9.13;;;;;;;-143.21;70.05;72714.72;4973839;28;20208;-83
2023/10/31 02:50:06;;;;;;;19.30;11.90;;;;;;;-143.21;70.33;72722.66;4982144;28;20216;-83
2023/10/31 02:52:33;;;;;;;21.87;14.47;;;;;;;-143.21;70.66;72720.69;4978837;28;20223;-82
2023/10/31 02:55:00;;;;;;;21.33;12.17;;;;;;;-143.21;70.63;72720.69;4976976;28;20205;-82
2023/10/31 02:57:28;;;;;;;21.33;12.20;;;;;;;-143.21;70.55;72730.59;4975009;28;20228;-81
2023/10/31 02:59:55;;;;;;;20.93;11.80;;;;;;;-143.21;71.20;72730.59;4977894;28;20201;-82
2023/10/31 03:02:22;;;;;;;22.67;12.40;;;;;;;-143.21;71.00;72738.53;4974935;28;20586;-83
2023/10/31 03:04:49;;;;;;;25.17;12.80;;;;;;;-143.21;71.01;72730.59;4970386;28;20279;-83
2023/10/31 03:07:15;;;;;;;20.50;11.90;;;;;;;-143.21;71.15;72742.50;4975853;28;20207;-83
2023/10/31 03:09:42;;;;;;;20.27;12.03;;;;;;;-143.21;70.71;72744.50;4975331;28;20586;-82
2023/10/31 03:12:09;;;;;;;23.17;13.13;;;;;;;-143.21;70.65;72746.47;4974603;28;20216;-83
2023/10/31 03:14:37;;;;;;;23.47;13.20;;;;;;;-143.21;70.42;72740.53;4980521;28;20255;-85
2023/10/31 03:17:04;;;;;;;23.80;13.83;;;;;;;-143.21;70.56;72750.44;4982107;28;20886;-83
2023/10/31 03:19:31;;;;;;;25.30;13.37;;;;;;;-143.21;70.60;72750.44;4976348;28;20212;-84
2023/10/31 03:21:58;;;;;;;19.87;12.70;;;;;;;-143.21;70.76;72754.41;4971320;28;20201;-83
2023/10/31 03:24:25;;;;;;;31.63;13.63;;;;;;;-143.21;70.64;72750.44;4980657;28;20204;-83
2023/10/31 03:26:52;;;;;;;20.50;12.47;;;;;;;-143.21;71.13;72748.47;4975967;28;20223;-83
2023/10/31 03:29:19;;;;;;;22.83;13.00;;;;;;;-143.21;70.90;72734.56;4979729;28;20208;-82
2023/10/31 03:31:47;;;;;;;22.03;12.13;;;;;;;-143.21;71.13;72738.53;4976277;28;20347;-83
2023/10/31 03:34:14;;;;;;;21.80;11.63;;;;;;;-143.21;71.17;72742.50;4981984;28;20213;-82
2023/10/31 03:36:41;;;;;;;23.53;11.93;;;;;;;-143.21;70.68;72746.47;4976835;28;20710;-83
2023/10/31 03:39:07;;;;;;;22.97;11.80;;;;;;;-143.21;70.48;72748.47;4975403;28;20208;-83
2023/10/31 03:41:34;;;;;;;19.63;10.97;;;;;;;-143.21;71.05;72754.41;4984859;28;20876;-83
2023/10/31 03:44:01;;;;;;;19.63;11.17;;;;;;;-143.21;71.44;72770.28;4979291;28;20585;-84
2023/10/31 03:46:28;;;;;;;20.10;11.33;;;;;;;-143.21;71.28;72778.22;4966621;28;20213;-83
2023/10/31 03:48:56;;;;;;;20.03;10.63;;;;;;;-143.21;72.09;72784.16;4980455;28;20213;-83
2023/10/31 03:51:23;;;;;;;23.17;10.00;;;;;;;-143.21;72.02;72776.22;4983538;28;20201;-83
2023/10/31 03:53:49;;;;;;;22.67;10.10;;;;;;;-143.21;72.04;72782.16;4986017;28;20208;-83
2023/10/31 03:56:19;;;;;;;20.97;10.53;;;;;;;-143.21;72.15;72778.22;4977206;28;20212;-83
2023/10/31 03:58:46;;;;;;;24.20;9.77;;;;;;;-143.21;71.86;72772.25;4983522;28;20196;-82
2023/10/31 04:01:13;;;;;;;18.30;10.80;;;;;;;-143.21;72.34;72786.13;4984500;28;20299;-83
2023/10/31 04:03:40;;;;;;;20.57;10.97;;;;;;;-143.21;72.98;72788.13;4977337;28;20983;-83
2023/10/31 04:06:08;;;;;;;19.40;11.03;;;;;;;-143.21;72.40;72786.13;4985148;28;20200;-82
2023/10/31 04:08:35;;;;;;;22.37;10.73;;;;;;;-143.21;72.78;72796.06;4973652;28;20239;-82
2023/10/31 04:11:04;;;;;;;22.93;11.70;;;;;;;-143.21;73.23;72798.03;4980718;28;20231;-82
2023/10/31 04:13:31;;;;;;;23.73;13.53;;;;;;;-143.21;73.44;72788.13;4987462;28;21054;-82
2023/10/31 04:15:57;;;;;;;26.47;12.47;;;;;;;-143.21;72.97;72784.16;4977637;28;20203;-84
2023/10/31 04:18:24;;;;;;;21.87;13.43;;;;;;;-143.21;73.13;72786.13;4977394;28;20252;-84
2023/10/31 04:20:51;;;;;;;28.37;14.67;;;;;;;-143.21;73.16;72796.06;4976375;28;20215;-83
2023/10/31 04:23:19;;;;;;;22.17;12.27;;;;;;;-143.21;73.10;72800.03;4972429;28;20212;-83
2023/10/31 04:25:46;;;;;;;24.07;12.70;;;;;;;-143.21;73.64;72800.03;4977426;28;20224;-85
2023/10/31 04:28:14;;;;;;;24.00;13.20;;;;;;;-143.21;73.56;72804.00;4984531;28;20196;-84
2023/10/31 04:30:41;;;;;;;25.70;11.57;;;;;;;-143.21;73.46;72796.06;4979665;28;20240;-84
2023/10/31 04:33:08;;;;;;;25.07;11.97;;;;;;;-143.21;73.46;72788.13;4975698;28;20651;-83
2023/10/31 04:35:35;;;;;;;28.40;14.23;;;;;;;-143.21;72.88;72788.13;4978594;28;20951;-82
2023/10/31 04:38:02;;;;;;;30.43;14.90;;;;;;;-143.21;73.14;72796.06;4973713;28;20722;-85
2023/10/31 04:40:32;;;;;;;33.63;16.63;;;;;;;-143.21;73.07;72798.03;4977153;28;20201;-87
2023/10/31 04:43:00;;;;;;;32.10;19.10;;;;;;;-143.21;73.10;72798.03;4982916;28;21684;-85
2023/10/31 04:45:27;;;;;;;30.00;16.93;;;;;;;-143.21;73.30;72798.03;4974823;28;20200;-84
2023/10/31 04:47:54;;;;;;;31.70;16.17;;;;;;;-143.21;73.23;72800.03;4982751;28;20212;-85
2023/10/31 04:50:21;;;;;;;36.37;19.73;;;;;;;-143.21;73.39;72796.06;4981925;28;20528;-84
2023/10/31 04:52:48;;;;;;;57.50;25.13;;;;;;;-143.21;72.70;72817.88;4975861;28;20212;-83
2023/10/31 04:55:15;;;;;;;48.83;28.07;;;;;;;-143.21;73.44;72825.81;4969277;28;20664;-81
2023/10/31 04:57:43;;;;;;;50.33;28.03;;;;;;;-143.21;73.55;72835.72;4977408;28;20220;-82
2023/10/31 05:00:11;;;;;;;48.50;27.93;;;;;;;-143.21;73.70;72835.72;4970943;28;20589;-82
2023/10/31 05:02:38;;;;;;;57.20;32.47;;;;;;;-143.21;73.47;72837.72;4980229;28;20664;-82
2023/10/31 05:05:05;;;;;;;64.97;36.20;;;;;;;-143.21;73.49;72835.72;4986840;28;20218;-82
2023/10/31 05:07:33;;;;;;;65.93;36.40;;;;;;;-143.21;73.77;72839.69;4979795;28;20204;-82
2023/10/31 05:10:00;;;;;;;63.90;35.33;;;;;;;-143.21;73.91;72823.81;4980534;28;20251;-82
2023/10/31 05:12:27;;;;;;;58.77;35.70;;;;;;;-143.21;73.78;72819.84;4981284;28;21021;-84
2023/10/31 05:14:55;;;;;;;62.23;34.67;;;;;;;-143.21;73.83;72817.88;4970360;28;20223;-80
2023/10/31 05:17:22;;;;;;;58.67;32.67;;;;;;;-143.21;73.49;72829.78;4973697;28;20248;-82
2023/10/31 05:19:49;;;;;;;46.37;22.77;;;;;;;-143.21;74.66;72835.72;4971775;28;20653;-81
2023/10/31 05:22:16;;;;;;;41.13;23.37;;;;;;;-143.21;74.65;72835.72;4982092;28;20238;-81
2023/10/31 05:24:43;;;;;;;43.20;21.13;;;;;;;-143.21;74.97;72837.72;4969660;28;20651;-82
2023/10/31 05:27:10;;;;;;;41.40;24.23;;;;;;;-143.21;74.28;72833.75;4985757;28;20254;-82
2023/10/31 05:29:39;;;;;;;44.43;25.37;;;;;;;-143.21;74.20;72829.78;4978631;28;20212;-82
2023/10/31 05:32:07;;;;;;;41.20;22.57;;;;;;;-143.21;74.25;72847.63;4974536;28;20750;-82
2023/10/31 05:34:34;;;;;;;50.03;24.43;;;;;;;-143.21;74.36;72829.78;4989905;28;20200;-82
2023/10/31 05:37:01;;;;;;;42.30;25.00;;;;;;;-143.21;73.96;72827.78;4970996;28;20657;-82
2023/10/31 05:39:28;;;;;;;47.87;23.93;;;;;;;-143.21;73.81;72823.81;4979112;28;20223;-84
2023/10/31 05:41:54;;;;;;;43.00;23.93;;;;;;;-143.21;73.90;72815.88;4973971;28;20267;-84
2023/10/31 05:44:21;;;;;;;50.07;25.20;;;;;;;-143.21;74.40;72831.75;4973885;28;20714;-85
2023/10/31 05:46:49;;;;;;;41.03;24.27;;;;;;;-143.21;74.76;72833.75;4979411;28;20234;-84
2023/10/31 05:49:17;;;;;;;40.97;23.03;;;;;;;-143.21;74.09;72819.84;4980623;28;20640;-82
2023/10/31 05:51:44;;;;;;;36.30;22.07;;;;;;;-143.21;74.39;72817.88;4978170;28;20212;-84
2023/10/31 05:54:10;;;;;;;41.00;21.43;;;;;;;-143.21;74.04;72831.75;4971570;28;20673;-83
2023/10/31 05:56:37;;;;;;;48.70;22.47;;;;;;;-143.21;74.41;72837.72;4980406;28;20205;-82
2023/10/31 05:59:04;;;;;;;43.50;24.23;;;;;;;-143.21;74.69;72835.72;4974337;28;20212;-83
2023/10/31 06:01:31;;;;;;;40.27;24.23;;;;;;;-143.21;74.18;72825.81;4971883;28;20211;-82
2023/10/31 06:03:57;;;;;;;48.97;24.20;;;;;;;-143.21;74.04;72823.81;4981745;28;20204;-81
2023/10/31 06:06:26;;;;;;;49.07;25.03;;;;;;;-143.21;74.39;72827.78;4977480;28;20281;-81
2023/10/31 06:08:53;;;;;;;40.40;22.67;;;;;;;-143.21;74.17;72827.78;4970886;28;20232;-81
2023/10/31 06:11:19;;;;;;;37.97;18.80;;;;;;;-143.21;74.58;72827.78;4980787;28;20716;-82
2023/10/31 06:13:47;;;;;;;24.50;13.97;;;;;;;-143.21;75.64;72857.53;4976331;28;20207;-82
2023/10/31 06:16:14;;;;;;;32.27;15.20;;;;;;;-143.21;76.06;72859.53;4973220;28;20204;-82
2023/10/31 06:18:41;;;;;;;30.63;14.43;;;;;;;-143.21;76.39;72833.75;4981712;28;20698;-81
2023/10/31 06:21:09;;;;;;;24.97;14.13;;;;;;;-143.21;76.32;72831.75;4972848;28;20232;-81
2023/10/31 06:23:38;;;;;;;24.40;12.07;;;;;;;-143.21;76.25;72827.78;4973370;28;20303;-81
2023/10/31 06:26:05;;;;;;;25.23;12.30;;;;;;;-143.21;76.46;72835.72;4976210;28;20243;-80
2023/10/31 06:28:34;;;;;;;23.57;12.63;;;;;;;-143.21;77.31;72847.63;4971723;28;21554;-82
2023/10/31 06:31:01;;;;;;;22.53;12.67;;;;;;;-143.21;77.50;72841.69;4973775;28;20254;-82
2023/10/31 06:33:28;;;;;;;18.83;12.27;;;;;;;-143.21;77.85;72839.69;4976560;28;20646;-81
2023/10/31 06:35:55;;;;;;;26.40;11.60;;;;;;;-143.21;77.27;72817.88;4976877;28;20204;-80
2023/10/31 06:38:22;;;;;;;26.57;12.53;;;;;;;-143.21;77.40;72823.81;4977083;28;20250;-82
2023/10/31 06:40:50;;;;;;;19.83;12.10;;;;;;;-143.21;76.75;72792.09;4977039;28;20212;-82
2023/10/31 06:43:17;;;;;;;24.60;12.20;;;;;;;-143.21;76.95;72788.13;4971315;28;20220;-82
2023/10/31 06:45:43;;;;;;;22.33;12.50;;;;;;;-143.21;76.33;72778.22;4969093;28;20205;-81
2023/10/31 06:48:10;;;;;;;25.13;13.13;;;;;;;-143.21;76.56;72764.31;4967188;28;20649;-81
2023/10/31 06:50:37;;;;;;;19.90;12.47;;;;;;;-143.21;76.00;72738.53;4964446;28;20644;-82
2023/10/31 06:53:03;;;;;;;24.83;12.30;;;;;;;-143.21;76.00;72744.50;4977568;28;20240;-81
2023/10/31 06:55:30;;;;;;;26.47;12.93;;;;;;;-143.21;76.36;72742.50;4977492;28;20213;-81
2023/10/31 06:57:58;;;;;;;29.40;12.37;;;;;;;-143.21;75.89;72728.63;4974206;28;20225;-82
2023/10/31 07:00:25;;;;;;;22.97;11.87;;;;;;;-143.21;75.85;72730.59;4970779;28;20696;-81
2023/10/31 07:02:52;;;;;;;23.33;12.00;;;;;;;-143.21;75.97;72728.63;4981470;28;20258;-81
2023/10/31 07:05:20;;;;;;;19.57;13.03;;;;;;;-143.21;75.63;72710.78;4967251;28;20197;-79
2023/10/31 07:07:47;;;;;;;24.70;12.83;;;;;;;-143.21;75.37;72696.88;4972886;28;20683;-79
2023/10/31 07:10:14;;;;;;;23.03;12.50;;;;;;;-143.21;75.01;72690.94;4961826;28;20208;-78
2023/10/31 07:12:41;;;;;;;23.37;12.40;;;;;;;-143.21;75.51;72683.00;4964843;28;20201;-78
2023/10/31 07:15:10;;;;;;;24.43;13.03;;;;;;;-143.21;74.91;72669.13;4974577;28;20220;-79
2023/10/31 07:17:37;;;;;;;24.67;13.33;;;;;;;-143.21;74.93;72657.22;4975770;28;20730;-79
2023/10/31 07:20:05;;;;;;;25.60;13.33;;;;;;;-143.21;74.71;72651.28;4978283;28;20243;-79
2023/10/31 07:22:33;;;;;;;23.13;12.03;;;;;;;-143.21;74.75;72643.34;4978156;28;20219;-79
2023/10/31 07:25:03;;;;;;;20.93;12.10;;;;;;;-143.21;74.58;72633.41;4968035;28;20205;-79
2023/10/31 07:27:29;;;;;;;26.27;12.53;;;;;;;-143.21;74.44;72625.47;4970918;28;20208;-80
2023/10/31 07:29:56;;;;;;;22.67;13.03;;;;;;;-143.21;73.82;72607.63;4971153;28;20244;-79
2023/10/31 07:32:25;;;;;;;24.77;13.00;;;;;;;-143.21;73.18;72597.72;4971944;28;20193;-80
2023/10/31 07:34:52;;;;;;;25.17;12.00;;;;;;;-143.21;72.88;72589.78;4974236;28;20233;-79
2023/10/31 07:37:19;;;;;;;19.50;12.17;;;;;;;-143.21;72.91;72579.88;4969198;28;20199;-80
2023/10/31 07:39:45;;;;;;;23.43;12.93;;;;;;;-143.21;72.46;72564.00;4970239;28;20208;-80
2023/10/31 07:42:12;;;;;;;21.83;12.83;;;;;;;-143.21;71.72;72546.16;4968373;28;20208;-79
2023/10/31 07:44:39;;;;;;;32.47;12.40;;;;;;;-143.21;71.52;72542.19;4980586;28;20204;-80
2023/10/31 07:47:06;;;;;;;27.67;13.23;;;;;;;-143.21;71.65;72534.25;4969471;28;20571;-79
2023/10/31 07:49:35;;;;;;;24.57;13.07;;;;;;;-143.21;71.44;72522.34;4974093;28;20216;-80
2023/10/31 07:52:01;;;;;;;29.57;14.57;;;;;;;-143.21;71.20;72504.50;4964985;28;21714;-80
2023/10/31 07:54:28;;;;;;;27.83;13.93;;;;;;;-143.21;70.73;72490.63;4979250;28;20251;-82
2023/10/31 07:56:55;;;;;;;30.93;14.87;;;;;;;-143.21;70.00;72480.72;4982314;28;20208;-82
2023/10/31 07:59:22;;;;;;;28.47;14.80;;;;;;;-143.21;69.81;72462.84;4958275;29;20722;-83
2023/10/31 08:01:50;;;;;;;29.20;15.73;;;;;;;-143.21;69.46;72452.94;4970625;28;20579;-79
2023/10/31 08:04:17;;;;;;;24.23;13.87;;;;;;;-143.21;69.61;72439.06;4975342;28;20199;-79
2023/10/31 08:06:45;;;;;;;29.30;15.13;;;;;;;-143.21;69.57;72431.13;4961006;28;20671;-80
2023/10/31 08:09:12;;;;;;;32.63;14.13;;;;;;;-143.21;69.76;72421.22;4962669;28;20201;-80
2023/10/31 08:11:39;;;;;;;25.20;13.00;;;;;;;-143.21;69.15;72399.41;4973463;28;20231;-80
2023/10/31 08:14:06;;;;;;;29.00;13.27;;;;;;;-143.21;69.21;72393.44;4972395;28;20572;-79
2023/10/31 08:16:32;;;;;;;27.43;12.43;;;;;;;-143.21;68.63;72373.63;4960148;28;20201;-80
2023/10/31 08:18:59;;;;;;;23.33;12.63;;;;;;;-143.21;68.79;72361.72;4955537;28;20222;-80
2023/10/31 08:21:28;;;;;;;24.80;12.53;;;;;;;-143.21;68.06;72337.91;4955588;28;20204;-80
2023/10/31 08:23:56;;;;;;;20.77;11.50;;;;;;;-143.21;67.58;72316.09;4955643;29;20193;-80
2023/10/31 08:26:23;;;;;;;18.50;11.03;;;;;;;-143.21;67.76;72304.19;4955952;28;20777;-80
2023/10/31 08:28:51;;;;;;;25.10;11.23;;;;;;;-143.21;67.53;72290.31;4955971;28;20668;-81
2023/10/31 08:31:18;;;;;;;23.70;11.53;;;;;;;-143.21;67.87;72272.47;4955375;29;20339;-80
2023/10/31 08:33:45;;;;;;;27.57;12.03;;;;;;;-143.21;67.77;72252.63;4956234;28;20641;-80
2023/10/31 08:36:11;;;;;;;16.47;10.03;;;;;;;-143.21;67.70;72244.72;4956017;28;20197;-81
2023/10/31 08:38:38;;;;;;;27.80;9.97;;;;;;;-143.21;66.95;72224.88;4957534;28;20347;-81
2023/10/31 08:41:06;;;;;;;17.60;9.57;;;;;;;-143.21;68.00;72197.13;4967898;28;20632;-80
2023/10/31 08:43:33;;;;;;;17.10;10.30;;;;;;;-143.21;65.67;72169.34;4955901;29;20822;-80
2023/10/31 08:46:00;;;;;;;20.83;10.97;;;;;;;-143.21;64.83;72143.56;4955448;28;20288;-80
2023/10/31 08:48:27;;;;;;;22.47;11.20;;;;;;;-143.21;64.26;72123.75;4956027;28;20197;-81
2023/10/31 08:50:54;;;;;;;24.93;11.37;;;;;;;-143.21;64.28;72107.88;4960322;28;20955;-80
2023/10/31 08:53:21;;;;;;;25.20;10.87;;;;;;;-143.21;63.77;72092.00;4974840;28;20201;-80
2023/10/31 08:55:47;;;;;;;18.97;9.60;;;;;;;-143.21;63.93;72074.16;4975080;28;20234;-81
2023/10/31 08:58:18;;;;;;;18.53;9.30;;;;;;;-143.21;62.59;72024.59;4974635;28;20225;-80
2023/10/31 09:00:44;;;;;;;18.60;9.43;;;;;;;-143.21;60.73;71945.28;4974317;28;20193;-80
2023/10/31 09:03:11;;;;;;;18.77;9.43;;;;;;;-143.21;58.61;71854.06;4974988;28;20244;-80
2023/10/31 09:05:38;;;;;;;21.00;8.97;;;;;;;-143.21;56.37;71760.88;4974607;28;20212;-81
2023/10/31 09:08:05;;;;;;;23.20;8.20;;;;;;;-143.21;53.25;71661.72;4974816;28;20244;-79
2023/10/31 09:10:33;;;;;;;21.23;9.07;;;;;;;-143.21;51.34;71610.16;4957393;28;20224;-80
2023/10/31 09:12:59;;;;;;;14.55;8.00;;;;;;;-143.21;50.35;71538.78;4954966;29;20197;-80
2023/10/31 09:15:28;;;;;;;14.68;8.20;;;;;;;-143.21;48.78;71445.59;4955184;28;20201;-80
2023/10/31 09:17:54;;;;;;;20.08;8.50;;;;;;;-143.21;47.24;71376.22;4974925;28;20192;-79
2023/10/31 09:20:24;;;;;;;15.45;7.68;;;;;;;-143.21;45.64;71306.81;4974459;28;20261;-80
2023/10/31 09:22:51;;;;;;;18.70;8.30;;;;;;;-143.21;44.68;71229.50;4956675;28;20284;-79
2023/10/31 09:25:18;;;;;;;13.70;7.80;;;;;;;-143.21;42.62;71160.13;4974336;28;20581;-79
2023/10/31 09:27:45;;;;;;;14.90;7.43;;;;;;;-143.21;42.12;71102.63;4977639;28;20192;-79
2023/10/31 09:30:14;;;;;;;20.23;7.95;;;;;;;-143.21;40.65;71035.22;4967860;28;20233;-79
2023/10/31 09:32:43;;;;;;;19.63;8.00;;;;;;;-143.21;39.81;70977.72;4954252;28;20205;-79
2023/10/31 09:35:10;;;;;;;17.23;7.80;;;;;;;-143.21;38.59;70912.31;4954531;28;20201;-79
2023/10/31 09:37:38;;;;;;;16.15;7.95;;;;;;;-143.21;37.38;70852.84;4970858;28;20203;-79
2023/10/31 09:40:06;;;;;;;16.17;7.93;;;;;;;-143.21;37.34;70815.19;4959990;28;20233;-78
2023/10/31 09:42:33;;;;;;;17.23;7.90;;;;;;;-143.21;36.40;70767.63;4953882;28;20732;-79
2023/10/31 09:44:59;;;;;;;16.77;7.28;;;;;;;-143.21;35.27;70712.09;4954296;29;20198;-79
2023/10/31 09:47:26;;;;;;;13.60;7.43;;;;;;;-143.21;34.77;70670.47;4954641;28;20200;-79
2023/10/31 09:49:54;;;;;;;13.63;6.78;;;;;;;-143.21;34.60;70652.66;4954365;29;20201;-80
2023/10/31 09:52:21;;;;;;;19.35;7.70;;;;;;;-143.21;34.14;70618.94;4967596;28;20200;-79
2023/10/31 09:54:50;;;;;;;13.93;7.85;;;;;;;-143.21;33.83;70597.13;4972825;28;20205;-79
2023/10/31 09:57:18;;;;;;;18.48;7.05;;;;;;;-143.21;33.60;70569.38;4972174;28;20668;-79
2023/10/31 09:59:45;;;;;;;17.67;7.22;;;;;;;-143.21;33.15;70529.75;4972333;28;20684;-80
2023/10/31 10:02:11;;;;;;;14.30;6.15;;;;;;;-143.21;32.81;70472.25;4972388;28;20193;-79
2023/10/31 10:04:39;;;;;;;12.07;6.47;;;;;;;-143.21;32.09;70430.66;4972077;28;20205;-79
2023/10/31 10:07:07;;;;;;;17.30;7.03;;;;;;;-143.21;32.14;70392.97;4972223;28;20203;-79
2023/10/31 10:09:39;;;;;;;14.75;6.65;;;;;;;-143.21;31.32;70414.78;4962448;28;20562;-79
2023/10/31 10:12:07;;;;;;;17.52;6.60;;;;;;;-143.21;32.00;70486.16;4962581;28;20200;-79
2023/10/31 10:14:34;;;;;;;17.92;6.57;;;;;;;-143.21;32.72;70565.44;4972360;28;20192;-79
2023/10/31 10:17:01;;;;;;;16.10;6.60;;;;;;;-143.21;34.04;70632.81;4963140;28;20672;-78
2023/10/31 10:19:28;;;;;;;14.10;6.72;;;;;;;-143.21;34.25;70674.44;4953653;29;20232;-79
2023/10/31 10:21:57;;;;;;;17.25;6.43;;;;;;;-143.21;34.68;70676.44;4953782;28;20564;-78
2023/10/31 10:24:26;;;;;;;15.77;6.97;;;;;;;-143.21;34.38;70664.53;4953382;29;20210;-80
2023/10/31 10:26:53;;;;;;;12.55;6.45;;;;;;;-143.21;34.57;70668.50;4953204;28;20244;-79
2023/10/31 10:29:20;;;;;;;15.63;6.28;;;;;;;-143.21;34.38;70670.47;4953252;28;20197;-79
2023/10/31 10:31:47;;;;;;;15.52;6.80;;;;;;;-143.21;34.45;70686.34;4953368;28;20233;-79
2023/10/31 10:34:16;;;;;;;17.48;6.72;;;;;;;-143.21;34.88;70704.19;4953159;28;20626;-79
2023/10/31 10:36:47;;;;;;;13.23;5.55;;;;;;;-143.21;35.34;70712.09;4953648;28;20284;-79
2023/10/31 10:39:20;;;;;;;15.20;6.38;;;;;;;-143.21;34.82;70714.09;4960061;28;20216;-79
2023/10/31 10:41:55;;;;;;;12.52;6.60;;;;;;;-143.21;34.76;70698.22;4971245;28;20231;-79
2023/10/31 10:44:28;;;;;;;18.38;6.90;;;;;;;-143.21;34.67;70674.44;4972628;28;20280;-79
2023/10/31 10:46:56;;;;;;;20.88;6.50;;;;;;;-143.21;34.41;70642.72;4972003;28;20664;-79
2023/10/31 10:49:26;;;;;;;18.50;6.75;;;;;;;-143.21;34.88;70634.81;4972810;28;20197;-79
2023/10/31 10:51:56;;;;;;;19.38;7.40;;;;;;;-143.21;34.15;70611.00;4972219;28;20189;-80
2023/10/31 10:54:30;;;;;;;18.65;7.25;;;;;;;-143.21;33.94;70581.28;4972194;28;20223;-79
2023/10/31 10:57:04;;;;;;;20.60;7.10;;;;;;;-143.21;33.02;70551.56;4972001;28;20596;-79
2023/10/31 10:59:39;;;;;;;13.95;6.13;;;;;;;-143.21;33.06;70547.59;4972732;28;20283;-79
2023/10/31 11:02:07;;;;;;;16.90;5.80;;;;;;;-143.21;32.52;70573.34;4964636;28;20193;-79
2023/10/31 11:04:35;;;;;;;12.88;5.75;;;;;;;-143.21;32.75;70609.03;4959316;28;20217;-79